Iroquois, South Dakota
Current Conditions -  °F | °C
As of 3:55 AM on Sunday 26 Oct 2014 (Local Time) from KHON Reporting Station
Clear Clear  
Wind Chill: 40°   Ceiling: Unl
Heat Index: 44°   Visibility: 10mi
Dew Point: 31°   Wind: 8mph
Humidity: 60%   Direction: 140°SE
Pressure: 29.9"   Gusts: NA
Location:  44.37°N, 97.85°W
Report Text: KHON 260855Z AUTO 14007KT 10SM CLR 07/M01 A2990 RMK AO2 SLP125 T00671006 56025
Loading
Personal Weather Stations






























Interactive Weather Map
Tropical Storm Tracking
New forecast layout! Learn more

10-Day Weather Forecast

Advertisements
Track Severe Weather on mobile